createdAt,value
2018-02-24T00:02:15.808Z,2.30
2018-02-24T00:04:43.390Z,2.30
2018-02-24T00:07:10.966Z,2.30
2018-02-24T00:09:39.334Z,2.20
2018-02-24T00:12:07.683Z,2.20
2018-02-24T00:14:35.324Z,2.20
2018-02-24T00:17:03.687Z,2.20
2018-02-24T00:19:31.270Z,2.20
2018-02-24T00:21:58.878Z,2.20
2018-02-24T00:24:26.461Z,2.20
2018-02-24T00:26:54.072Z,2.20
2018-02-24T00:29:21.695Z,2.20
2018-02-24T00:31:49.303Z,2.10
2018-02-24T00:34:16.886Z,2.20
2018-02-24T00:36:44.528Z,2.10
2018-02-24T00:39:12.135Z,2.10
2018-02-24T00:41:39.711Z,2.10
2018-02-24T00:44:07.314Z,2.10
2018-02-24T00:46:35.663Z,2.00
2018-02-24T00:49:03.271Z,2.00
2018-02-24T00:51:30.859Z,2.00
2018-02-24T00:53:58.439Z,2.10
2018-02-24T00:56:26.051Z,2.10
2018-02-24T00:58:53.683Z,2.00
2018-02-24T01:01:21.298Z,2.00
2018-02-24T01:03:48.874Z,2.10
2018-02-24T01:06:16.471Z,2.10
2018-02-24T01:08:44.099Z,2.00
2018-02-24T01:11:11.726Z,2.10
2018-02-24T01:13:39.307Z,2.00
2018-02-24T01:16:06.901Z,2.00
2018-02-24T01:18:34.514Z,2.00
2018-02-24T01:21:02.102Z,2.00
2018-02-24T01:23:29.692Z,2.00
2018-02-24T01:25:57.290Z,2.00
2018-02-24T01:28:24.890Z,2.00
2018-02-24T01:30:52.471Z,2.00
2018-02-24T01:33:20.081Z,2.00
2018-02-24T01:35:47.666Z,2.00
2018-02-24T01:38:15.275Z,2.00
2018-02-24T01:40:42.858Z,2.00
2018-02-24T01:43:10.462Z,2.00
2018-02-24T01:45:38.044Z,2.00
2018-02-24T01:48:05.622Z,2.00
2018-02-24T01:50:41.779Z,2.00
2018-02-24T01:53:09.398Z,2.00
2018-02-24T01:55:36.978Z,2.00
2018-02-24T01:58:04.558Z,2.00
2018-02-24T02:00:32.186Z,2.00
2018-02-24T02:02:59.779Z,2.00
2018-02-24T02:05:27.362Z,2.00
2018-02-24T02:07:54.990Z,2.00
2018-02-24T02:10:23.333Z,2.00
2018-02-24T02:12:50.962Z,1.90
2018-02-24T02:15:18.621Z,2.00
2018-02-24T02:17:46.198Z,1.90
2018-02-24T02:20:14.542Z,1.90
2018-02-24T02:22:42.171Z,1.90
2018-02-24T02:25:09.751Z,2.00
2018-02-24T02:27:38.106Z,2.00
2018-02-24T02:30:06.495Z,2.00
2018-02-24T02:32:34.107Z,1.90
2018-02-24T02:35:01.687Z,1.90
2018-02-24T02:37:29.274Z,1.90
2018-02-24T02:39:56.880Z,1.90
2018-02-24T02:42:24.469Z,1.90
2018-02-24T02:44:52.046Z,1.90
2018-02-24T02:47:20.424Z,1.90
2018-02-24T02:49:48.046Z,1.90
2018-02-24T02:52:15.627Z,1.90
2018-02-24T02:54:43.211Z,1.90
2018-02-24T02:57:10.827Z,1.90
2018-02-24T02:59:38.411Z,1.90
2018-02-24T03:02:06.024Z,1.80
2018-02-24T03:04:33.625Z,1.80
2018-02-24T03:07:02.024Z,1.80
2018-02-24T03:09:29.603Z,1.70
2018-02-24T03:11:57.187Z,1.80
2018-02-24T03:14:25.568Z,1.70
2018-02-24T03:16:53.150Z,1.70
2018-02-24T03:19:20.771Z,1.70
2018-02-24T03:21:48.354Z,1.70
2018-02-24T03:24:15.961Z,1.70
2018-02-24T03:26:43.539Z,1.60
2018-02-24T03:29:11.173Z,1.60
2018-02-24T03:31:38.764Z,1.60
2018-02-24T03:34:06.347Z,1.60
2018-02-24T03:36:33.950Z,1.60
2018-02-24T03:39:01.530Z,1.60
2018-02-24T03:41:29.139Z,1.60
2018-02-24T03:43:56.774Z,1.60
2018-02-24T03:46:28.239Z,1.60
2018-02-24T03:48:56.591Z,1.50
2018-02-24T03:51:24.174Z,1.50
2018-02-24T03:53:51.774Z,1.50
2018-02-24T03:56:19.364Z,1.50
2018-02-24T03:58:46.946Z,1.50
2018-02-24T04:01:14.555Z,1.50
2018-02-24T04:03:42.134Z,1.50
2018-02-24T04:06:09.734Z,1.50
2018-02-24T04:08:38.082Z,1.50
2018-02-24T04:11:05.683Z,1.40
2018-02-24T04:13:33.267Z,1.50
2018-02-24T04:16:00.877Z,1.50
2018-02-24T04:18:28.487Z,1.50
2018-02-24T04:20:56.069Z,1.50
2018-02-24T04:23:23.678Z,1.50
2018-02-24T04:25:52.021Z,1.40
2018-02-24T04:28:19.647Z,1.40
2018-02-24T04:30:47.231Z,1.40
2018-02-24T04:33:15.596Z,1.40
2018-02-24T04:35:43.203Z,1.30
2018-02-24T04:38:10.785Z,1.30
2018-02-24T04:40:39.159Z,1.30
2018-02-24T04:43:06.743Z,1.30
2018-02-24T04:45:34.353Z,1.30
2018-02-24T04:48:01.931Z,1.30
2018-02-24T04:50:29.539Z,1.30
2018-02-24T04:52:57.123Z,1.30
2018-02-24T04:55:24.703Z,1.30
2018-02-24T04:57:52.311Z,1.30
2018-02-24T05:00:19.897Z,1.20
2018-02-24T05:02:48.278Z,1.20
2018-02-24T05:05:16.626Z,1.20
2018-02-24T05:07:44.236Z,1.20
2018-02-24T05:10:11.813Z,1.20
2018-02-24T05:12:39.419Z,1.20
2018-02-24T05:15:07.002Z,1.20
2018-02-24T05:17:34.583Z,1.20
2018-02-24T05:20:02.190Z,1.20
2018-02-24T05:22:29.775Z,1.20
2018-02-24T05:24:57.386Z,1.20
2018-02-24T05:27:24.967Z,1.20
2018-02-24T05:29:52.551Z,1.20
2018-02-24T05:32:20.152Z,1.20
2018-02-24T05:34:47.727Z,1.20
2018-02-24T05:37:15.336Z,1.20
2018-02-24T05:39:43.691Z,1.10
2018-02-24T05:42:12.062Z,1.20
2018-02-24T05:44:40.434Z,1.10
2018-02-24T05:47:08.038Z,1.00
2018-02-24T05:49:35.614Z,1.10
2018-02-24T05:52:03.954Z,1.00
2018-02-24T05:54:31.555Z,1.00
2018-02-24T05:56:59.134Z,1.10
2018-02-24T05:59:26.759Z,1.10
2018-02-24T06:01:54.338Z,1.00
2018-02-24T06:04:21.919Z,1.00
2018-02-24T06:06:49.526Z,1.10
2018-02-24T06:09:17.127Z,1.10
2018-02-24T06:11:44.710Z,1.10
2018-02-24T06:14:12.314Z,1.10
2018-02-24T06:16:39.926Z,1.10
2018-02-24T06:19:07.511Z,1.10
2018-02-24T06:21:35.101Z,1.10
2018-02-24T06:24:02.707Z,1.00
2018-02-24T06:26:30.302Z,1.10
2018-02-24T06:28:57.931Z,1.00
2018-02-24T06:31:25.515Z,1.10
2018-02-24T06:33:53.887Z,1.00
2018-02-24T06:36:21.476Z,0.90
2018-02-24T06:38:49.563Z,1.00
2018-02-24T06:41:17.149Z,0.90
2018-02-24T06:43:44.727Z,1.00
2018-02-24T06:46:12.372Z,1.00
2018-02-24T06:48:39.955Z,1.00
2018-02-24T06:51:08.319Z,0.90
2018-02-24T06:53:36.666Z,0.90
2018-02-24T06:56:04.274Z,0.90
2018-02-24T06:58:31.854Z,0.90
2018-02-24T07:00:59.480Z,0.90
2018-02-24T07:03:27.062Z,0.90
2018-02-24T07:05:54.642Z,0.90
2018-02-24T07:08:22.246Z,0.90
2018-02-24T07:10:49.830Z,1.00
2018-02-24T07:13:17.434Z,1.00
2018-02-24T07:15:45.139Z,1.00
2018-02-24T07:18:12.747Z,0.90
2018-02-24T07:20:41.115Z,0.90
2018-02-24T07:23:09.510Z,0.90
2018-02-24T07:25:37.099Z,0.80
2018-02-24T07:28:04.878Z,0.90
2018-02-24T07:30:33.286Z,0.90
2018-02-24T07:33:00.871Z,0.90
2018-02-24T07:35:28.483Z,0.90
2018-02-24T07:37:56.067Z,0.90
2018-02-24T07:40:23.687Z,0.90
2018-02-24T07:42:51.268Z,0.90
2018-02-24T07:45:19.617Z,0.90
2018-02-24T07:47:47.218Z,0.80
2018-02-24T07:50:14.818Z,0.90
2018-02-24T07:52:43.186Z,0.90
2018-02-24T07:55:11.590Z,0.90
2018-02-24T07:57:39.166Z,0.80
2018-02-24T08:00:06.751Z,0.90
2018-02-24T08:02:35.117Z,1.00
2018-02-24T08:05:03.487Z,1.10
2018-02-24T08:07:31.107Z,1.00
2018-02-24T08:09:58.682Z,1.10
2018-02-24T08:12:26.264Z,1.10
2018-02-24T08:14:53.878Z,1.10
2018-02-24T08:17:21.463Z,1.20
2018-02-24T08:19:49.042Z,1.20
2018-02-24T08:22:17.431Z,1.10
2018-02-24T08:24:45.015Z,1.10
2018-02-24T08:27:12.663Z,1.20
2018-02-24T08:29:40.271Z,1.10
2018-02-24T08:32:07.857Z,1.20
2018-02-24T08:34:35.439Z,1.10
2018-02-24T08:37:03.815Z,1.10
2018-02-24T08:39:32.186Z,1.10
2018-02-24T08:41:59.768Z,1.10
2018-02-24T08:44:27.379Z,1.10
2018-02-24T08:46:54.987Z,1.20
2018-02-24T08:49:22.590Z,1.20
2018-02-24T08:51:50.179Z,1.20
2018-02-24T08:54:17.798Z,1.20
2018-02-24T08:56:45.383Z,1.20
2018-02-24T08:59:12.986Z,1.20
2018-02-24T09:01:40.596Z,1.20
2018-02-24T09:04:08.323Z,1.20
2018-02-24T09:06:35.926Z,1.20
2018-02-24T09:09:03.518Z,1.20
2018-02-24T09:11:31.150Z,1.20
2018-02-24T09:13:58.780Z,1.20
2018-02-24T09:16:26.650Z,1.20
2018-02-24T09:18:54.390Z,1.20
2018-02-24T09:21:21.984Z,1.20
2018-02-24T09:23:49.639Z,1.20
2018-02-24T09:26:17.420Z,1.30
2018-02-24T09:28:45.013Z,1.30
2018-02-24T09:31:13.382Z,1.30
2018-02-24T09:33:41.831Z,1.40
2018-02-24T09:36:10.507Z,1.40
2018-02-24T09:38:38.859Z,1.40
2018-02-24T09:41:06.468Z,1.40
2018-02-24T09:43:34.079Z,1.40
2018-02-24T09:46:01.960Z,1.50
2018-02-24T09:48:29.780Z,1.50
2018-02-24T09:50:57.372Z,1.50
2018-02-24T09:53:24.955Z,1.50
2018-02-24T09:55:53.342Z,1.50
2018-02-24T09:58:21.078Z,1.50
2018-02-24T10:00:49.418Z,1.50
2018-02-24T10:03:17.019Z,1.50
2018-02-24T10:05:44.615Z,1.50
2018-02-24T10:08:12.292Z,1.50
2018-02-24T10:10:40.832Z,1.60
2018-02-24T10:13:09.439Z,1.60
2018-02-24T10:15:37.046Z,1.60
2018-02-24T10:18:04.651Z,1.60
2018-02-24T10:20:32.344Z,1.70
2018-02-24T10:23:00.741Z,1.70
2018-02-24T10:25:28.326Z,1.70
2018-02-24T10:27:55.968Z,1.80
2018-02-24T10:30:23.834Z,1.80
2018-02-24T10:32:51.450Z,1.80
2018-02-24T10:35:19.979Z,1.80
2018-02-24T10:37:48.331Z,1.70
2018-02-24T10:40:15.938Z,1.70
2018-02-24T10:42:43.523Z,1.80
2018-02-24T10:45:11.107Z,1.70
2018-02-24T10:47:38.719Z,1.70
2018-02-24T10:50:07.067Z,1.70
2018-02-24T10:52:34.651Z,1.70
2018-02-24T10:55:02.259Z,1.70
2018-02-24T10:57:29.897Z,1.70
2018-02-24T10:59:57.503Z,1.70
2018-02-24T11:02:25.088Z,1.70
2018-02-24T11:04:52.710Z,1.70
2018-02-24T11:07:20.292Z,1.70
2018-02-24T11:09:47.883Z,1.70
2018-02-24T11:12:15.493Z,1.80
2018-02-24T11:14:43.934Z,1.90
2018-02-24T11:17:11.547Z,1.80
2018-02-24T11:19:39.131Z,1.90
2018-02-24T11:22:06.743Z,1.90
2018-02-24T11:24:34.339Z,1.90
2018-02-24T11:27:01.947Z,1.90
2018-02-24T11:29:29.555Z,1.90
2018-02-24T11:31:57.903Z,2.00
2018-02-24T11:34:26.275Z,2.00
2018-02-24T11:36:54.627Z,2.00
2018-02-24T11:39:27.907Z,1.90
2018-02-24T11:41:56.266Z,2.00
2018-02-24T11:44:23.847Z,1.90
2018-02-24T11:46:51.487Z,2.00
2018-02-24T11:49:19.072Z,2.00
2018-02-24T11:51:46.659Z,2.10
2018-02-24T11:54:14.287Z,2.00
2018-02-24T11:56:41.907Z,2.10
2018-02-24T11:59:09.538Z,2.10
2018-02-24T12:01:37.119Z,2.10
2018-02-24T12:04:04.727Z,2.20
2018-02-24T12:06:32.337Z,2.20
2018-02-24T12:09:00.722Z,2.20
2018-02-24T12:11:28.327Z,2.20
2018-02-24T12:13:56.708Z,2.20
2018-02-24T12:16:25.119Z,2.10
2018-02-24T12:18:52.731Z,2.10
2018-02-24T12:21:21.079Z,2.20
2018-02-24T12:23:49.431Z,2.20
2018-02-24T12:26:17.071Z,2.20
2018-02-24T12:28:44.690Z,2.20
2018-02-24T12:31:12.267Z,2.20
2018-02-24T12:33:39.854Z,2.30
2018-02-24T12:36:07.472Z,2.30
2018-02-24T12:38:35.823Z,2.30
2018-02-24T12:41:03.428Z,2.20
2018-02-24T12:43:31.034Z,2.30
2018-02-24T12:45:59.387Z,2.30
2018-02-24T12:48:26.994Z,2.30
2018-02-24T12:50:54.608Z,2.30
2018-02-24T12:53:22.192Z,2.40
2018-02-24T12:55:49.814Z,2.40
2018-02-24T12:58:17.398Z,2.40
2018-02-24T13:00:44.978Z,2.40
2018-02-24T13:03:13.351Z,2.40
2018-02-24T13:05:40.935Z,2.40
2018-02-24T13:08:08.543Z,2.40
2018-02-24T13:10:36.132Z,2.50
2018-02-24T13:13:03.770Z,2.40
2018-02-24T13:15:31.379Z,2.40
2018-02-24T13:17:59.728Z,2.50
2018-02-24T13:20:28.104Z,2.50
2018-02-24T13:22:56.478Z,2.50
2018-02-24T13:25:24.149Z,2.40
2018-02-24T13:27:51.712Z,2.50
2018-02-24T13:30:19.319Z,2.50
2018-02-24T13:32:46.903Z,2.60
2018-02-24T13:35:14.515Z,2.60
2018-02-24T13:37:42.103Z,2.60
2018-02-24T13:40:09.707Z,2.60
2018-02-24T13:42:37.391Z,2.60
2018-02-24T13:45:05.157Z,2.50
2018-02-24T13:47:32.750Z,2.60
2018-02-24T13:50:00.379Z,2.70
2018-02-24T13:52:28.925Z,2.70
2018-02-24T13:54:56.756Z,2.60
2018-02-24T13:57:24.418Z,2.60
2018-02-24T13:59:52.019Z,2.60
2018-02-24T14:02:19.648Z,2.60
2018-02-24T14:04:47.344Z,2.50
2018-02-24T14:07:14.931Z,2.50
2018-02-24T14:09:43.307Z,2.50
2018-02-24T14:12:10.896Z,2.50
2018-02-24T14:14:38.479Z,2.50
2018-02-24T14:17:06.856Z,2.60
2018-02-24T14:19:34.458Z,2.60
2018-02-24T14:22:02.064Z,2.60
2018-02-24T14:24:29.683Z,2.60
2018-02-24T14:26:58.117Z,2.60
2018-02-24T14:29:25.699Z,2.60
2018-02-24T14:31:54.080Z,2.60
2018-02-24T14:34:21.678Z,2.60
2018-02-24T14:36:50.271Z,2.60
2018-02-24T14:39:18.614Z,2.60
2018-02-24T14:41:46.191Z,2.60
2018-02-24T14:44:15.600Z,2.70
2018-02-24T14:46:43.179Z,2.70
2018-02-24T14:49:10.791Z,2.70
2018-02-24T14:51:38.375Z,2.70
2018-02-24T14:54:06.000Z,2.60
2018-02-24T14:56:33.587Z,2.60
2018-02-24T14:59:01.218Z,2.60
2018-02-24T15:01:28.851Z,2.60
2018-02-24T15:03:56.430Z,2.60
2018-02-24T15:06:24.015Z,2.60
2018-02-24T15:08:51.627Z,2.60
2018-02-24T15:11:19.237Z,2.60
2018-02-24T15:13:46.847Z,2.50
2018-02-24T15:16:14.536Z,2.50
2018-02-24T15:18:42.175Z,2.50
2018-02-24T15:21:09.794Z,2.50
2018-02-24T15:23:37.379Z,2.50
2018-02-24T15:26:04.964Z,2.40
2018-02-24T15:28:33.340Z,2.40
2018-02-24T15:31:00.919Z,2.40
2018-02-24T15:33:28.569Z,2.40
2018-02-24T15:35:56.175Z,2.40
2018-02-24T15:38:23.801Z,2.40
2018-02-24T15:40:52.159Z,2.40
2018-02-24T15:43:19.743Z,2.40
2018-02-24T15:45:47.363Z,2.50
2018-02-24T15:48:15.715Z,2.50
2018-02-24T15:50:43.295Z,2.40
2018-02-24T15:53:11.802Z,2.50
2018-02-24T15:55:39.384Z,2.50
2018-02-24T15:58:07.731Z,2.50
2018-02-24T16:00:35.351Z,2.50
2018-02-24T16:03:02.936Z,2.50
2018-02-24T16:05:31.311Z,2.60
2018-02-24T16:07:59.700Z,2.50
2018-02-24T16:10:27.284Z,2.50
2018-02-24T16:12:54.894Z,2.60
2018-02-24T16:15:22.477Z,2.60
2018-02-24T16:17:50.099Z,2.60
2018-02-24T16:20:17.916Z,2.60
2018-02-24T16:22:45.511Z,2.60
2018-02-24T16:25:13.121Z,2.60
2018-02-24T16:27:40.711Z,2.60
2018-02-24T16:30:08.331Z,2.50
2018-02-24T16:32:35.911Z,2.50
2018-02-24T16:35:03.520Z,2.50
2018-02-24T16:37:31.160Z,2.40
2018-02-24T16:39:58.747Z,2.40
2018-02-24T16:42:26.368Z,2.30
2018-02-24T16:44:53.954Z,2.30
2018-02-24T16:47:22.335Z,2.30
2018-02-24T16:49:50.683Z,2.20
2018-02-24T16:52:18.279Z,2.20
2018-02-24T16:54:45.907Z,2.20
2018-02-24T16:57:14.263Z,2.20
2018-02-24T16:59:42.615Z,2.20
2018-02-24T17:02:10.223Z,2.10
2018-02-24T17:04:37.826Z,2.20
2018-02-24T17:07:06.167Z,2.10
2018-02-24T17:09:33.827Z,2.10
2018-02-24T17:12:02.194Z,2.10
2018-02-24T17:14:30.556Z,2.10
2018-02-24T17:16:59.542Z,2.10
2018-02-24T17:19:27.895Z,2.00
2018-02-24T17:21:56.239Z,2.10
2018-02-24T17:24:23.850Z,2.10
2018-02-24T17:26:51.431Z,2.10
2018-02-24T17:29:19.042Z,2.00
2018-02-24T17:31:46.619Z,2.00
2018-02-24T17:34:14.224Z,2.00
2018-02-24T17:36:41.814Z,2.00
2018-02-24T17:39:09.426Z,2.00
2018-02-24T17:41:37.007Z,2.00
2018-02-24T17:44:04.623Z,2.00
2018-02-24T17:46:32.239Z,2.00
2018-02-24T17:48:59.815Z,2.00
2018-02-24T17:51:27.414Z,2.00
2018-02-24T17:53:55.754Z,2.00
2018-02-24T17:56:23.355Z,1.90
2018-02-24T17:58:50.938Z,1.90
2018-02-24T18:01:18.518Z,1.90
2018-02-24T18:03:46.887Z,1.90
2018-02-24T18:06:14.471Z,1.90
2018-02-24T18:08:42.071Z,1.90
2018-02-24T18:11:10.467Z,1.90
2018-02-24T18:13:38.105Z,1.80
2018-02-24T18:16:06.189Z,1.80
2018-02-24T18:18:34.043Z,1.80
2018-02-24T18:21:02.499Z,1.80
2018-02-24T18:23:30.082Z,1.80
2018-02-24T18:25:57.687Z,1.80
2018-02-24T18:28:25.286Z,1.80
2018-02-24T18:30:53.663Z,1.80
2018-02-24T18:33:21.258Z,1.70
2018-02-24T18:35:48.855Z,1.70
2018-02-24T18:38:17.198Z,1.70
2018-02-24T18:40:44.815Z,1.60
2018-02-24T18:43:12.822Z,1.70
2018-02-24T18:45:40.477Z,1.60
2018-02-24T18:48:08.059Z,1.60
2018-02-24T18:50:35.639Z,1.50
2018-02-24T18:53:04.015Z,1.50
2018-02-24T18:55:32.387Z,1.50
2018-02-24T18:57:59.971Z,1.40
2018-02-24T19:00:27.591Z,1.40
2018-02-24T19:02:55.171Z,1.40
2018-02-24T19:05:22.751Z,1.40
2018-02-24T19:07:51.119Z,1.30
2018-02-24T19:10:19.462Z,1.30
2018-02-24T19:12:47.068Z,1.30
2018-02-24T19:15:14.651Z,1.40
2018-02-24T19:17:42.255Z,1.40
2018-02-24T19:20:09.835Z,1.40
2018-02-24T19:22:37.455Z,1.40
2018-02-24T19:25:05.065Z,1.40
2018-02-24T19:27:33.412Z,1.30
2018-02-24T19:30:01.026Z,1.30
2018-02-24T19:32:28.598Z,1.30
2018-02-24T19:34:56.181Z,1.30
2018-02-24T19:37:23.801Z,1.30
2018-02-24T19:39:52.147Z,1.30
2018-02-24T19:42:19.731Z,1.30
2018-02-24T19:44:47.335Z,1.30
2018-02-24T19:47:14.944Z,1.30
2018-02-24T19:49:42.524Z,1.30
2018-02-24T19:52:10.123Z,1.30
2018-02-24T19:54:37.700Z,1.20
2018-02-24T19:57:05.275Z,1.20
2018-02-24T19:59:32.885Z,1.20
2018-02-24T20:02:01.457Z,1.20
2018-02-24T20:04:29.085Z,1.20
2018-02-24T20:06:56.664Z,1.20
2018-02-24T20:09:24.247Z,1.20
2018-02-24T20:11:52.615Z,1.10
2018-02-24T20:14:20.960Z,1.10
2018-02-24T20:16:48.563Z,1.10
2018-02-24T20:19:16.147Z,1.10
2018-02-24T20:21:43.747Z,1.10
2018-02-24T20:24:11.378Z,1.10
2018-02-24T20:26:38.959Z,1.00
2018-02-24T20:29:06.583Z,1.10
2018-02-24T20:31:34.173Z,1.00
2018-02-24T20:34:01.751Z,1.10
2018-02-24T20:36:29.363Z,1.10
2018-02-24T20:38:57.006Z,1.10
2018-02-24T20:41:24.593Z,1.10
2018-02-24T20:43:52.203Z,1.20
2018-02-24T20:46:19.811Z,1.20
2018-02-24T20:48:47.395Z,1.20
2018-02-24T20:51:15.794Z,1.20
2018-02-24T20:53:43.375Z,1.10
2018-02-24T20:56:10.964Z,1.20
2018-02-24T20:58:39.343Z,1.10
2018-02-24T21:01:07.690Z,1.10
2018-02-24T21:03:36.171Z,1.10
2018-02-24T21:06:04.618Z,1.10
2018-02-24T21:08:32.280Z,1.00
2018-02-24T21:11:01.184Z,1.00
2018-02-24T21:13:28.763Z,1.00
2018-02-24T21:15:57.691Z,0.90
2018-02-24T21:18:26.047Z,0.90
2018-02-24T21:20:53.659Z,0.90
2018-02-24T21:23:21.247Z,0.90
2018-02-24T21:25:48.831Z,0.90
2018-02-24T21:28:16.440Z,0.90
2018-02-24T21:30:44.195Z,0.90
2018-02-24T21:33:11.799Z,0.90
2018-02-24T21:35:39.378Z,0.80
2018-02-24T21:38:06.995Z,0.80
2018-02-24T21:40:34.622Z,0.80
2018-02-24T21:43:02.208Z,0.80
2018-02-24T21:45:30.601Z,0.70
2018-02-24T21:47:58.191Z,0.70
2018-02-24T21:50:25.770Z,0.80
2018-02-24T21:52:54.143Z,0.70
2018-02-24T21:55:21.722Z,0.60
2018-02-24T21:57:49.322Z,0.70
2018-02-24T22:00:17.662Z,0.60
2018-02-24T22:02:45.240Z,0.60
2018-02-24T22:05:12.934Z,0.70
2018-02-24T22:07:41.379Z,0.60
2018-02-24T22:10:09.142Z,0.60
2018-02-24T22:12:36.743Z,0.50
2018-02-24T22:15:05.130Z,0.50
2018-02-24T22:17:32.721Z,0.50
2018-02-24T22:20:00.327Z,0.50
2018-02-24T22:22:27.903Z,0.40
2018-02-24T22:24:55.474Z,0.40
2018-02-24T22:27:23.077Z,0.40
2018-02-24T22:29:50.650Z,0.40
2018-02-24T22:32:18.260Z,0.40
2018-02-24T22:34:45.830Z,0.40
2018-02-24T22:37:13.411Z,0.40
2018-02-24T22:39:41.795Z,0.30
2018-02-24T22:42:09.371Z,0.20
2018-02-24T22:44:36.962Z,0.30
2018-02-24T22:47:04.580Z,0.30
2018-02-24T22:49:32.151Z,0.30
2018-02-24T22:52:00.495Z,0.20
2018-02-24T22:54:28.125Z,0.20
2018-02-24T22:56:55.703Z,0.20
2018-02-24T22:59:23.278Z,0.20
2018-02-24T23:01:50.880Z,0.20
2018-02-24T23:04:18.455Z,0.20
2018-02-24T23:06:46.835Z,0.20
2018-02-24T23:09:14.407Z,0.10
2018-02-24T23:11:41.989Z,0.10
2018-02-24T23:14:09.587Z,0.10
2018-02-24T23:16:37.195Z,0.10
2018-02-24T23:19:05.560Z,0.10
2018-02-24T23:21:33.922Z,0.10
2018-02-24T23:24:02.257Z,0.10
2018-02-24T23:26:29.860Z,0.00
2018-02-24T23:28:57.642Z,0.00
2018-02-24T23:31:25.242Z,0.10
2018-02-24T23:33:52.814Z,0.00
2018-02-24T23:36:20.424Z,0.00
2018-02-24T23:38:48.807Z,-0.10
2018-02-24T23:41:16.410Z,-0.10
2018-02-24T23:43:43.987Z,-0.10
2018-02-24T23:46:11.587Z,-0.10
2018-02-24T23:48:39.187Z,-0.10
2018-02-24T23:51:06.816Z,-0.10
2018-02-24T23:53:35.159Z,-0.20
2018-02-24T23:56:02.737Z,-0.20
2018-02-24T23:58:30.338Z,-0.30
